Time;durP1;ratioP1;P1;durP2;ratioP2;P2;SDS_P1;SDS_P2;PMS_P1;PMS_P2;Temp;Humidity;BMP_temperature;BMP_pressure;BME280_temperature;BME280_humidity;BME280_pressure;Samples;Min_cycle;Max_cycle;Signal;HPM_P1;HPM_P2
2021/11/29 00:00:49;;;;;;;30.07;14.93;;;;;;;0.66;100.00;99127.25;4971987;28;20522;-82
2021/11/29 00:03:17;;;;;;;35.00;17.17;;;;;;;0.65;100.00;99133.31;4991060;28;20053;-85
2021/11/29 00:05:44;;;;;;;34.53;14.93;;;;;;;0.62;100.00;99135.94;4980727;28;20065;-82
2021/11/29 00:08:11;;;;;;;31.70;15.57;;;;;;;0.68;100.00;99134.19;4972813;28;20049;-82
2021/11/29 00:10:38;;;;;;;33.13;14.70;;;;;;;0.83;100.00;99128.88;4961359;28;20045;-82
2021/11/29 00:13:05;;;;;;;30.03;15.37;;;;;;;0.77;100.00;99126.34;4973295;28;20041;-85
2021/11/29 00:15:31;;;;;;;36.07;16.20;;;;;;;0.64;100.00;99118.59;4996305;28;20046;-82
2021/11/29 00:18:01;;;;;;;34.30;16.03;;;;;;;0.68;100.00;99129.00;4996915;28;20052;-85
2021/11/29 00:20:29;;;;;;;30.20;16.07;;;;;;;0.72;100.00;99135.03;4978390;28;20037;-82
2021/11/29 00:22:59;;;;;;;31.43;15.33;;;;;;;0.74;100.00;99135.88;4978792;28;20038;-82
2021/11/29 00:25:29;;;;;;;25.40;14.57;;;;;;;0.74;100.00;99128.94;5009226;28;20052;-82
2021/11/29 00:28:01;;;;;;;33.90;16.27;;;;;;;0.72;100.00;99135.88;4994448;28;20046;-82
2021/11/29 00:30:27;;;;;;;27.83;14.67;;;;;;;0.70;100.00;99141.97;4993045;28;20081;-82
2021/11/29 00:32:56;;;;;;;31.20;15.60;;;;;;;0.69;100.00;99135.06;5013127;28;20502;-82
2021/11/29 00:35:23;;;;;;;26.27;14.60;;;;;;;0.74;100.00;99133.28;4996311;28;20038;-83
2021/11/29 00:37:55;;;;;;;32.23;15.00;;;;;;;0.85;100.00;99126.28;4989995;28;20061;-83
2021/11/29 00:40:24;;;;;;;30.17;15.50;;;;;;;0.69;100.00;99133.31;4970091;28;20053;-82
2021/11/29 00:42:51;;;;;;;32.17;16.73;;;;;;;0.76;100.00;99131.56;4980084;28;20423;-83
2021/11/29 00:45:21;;;;;;;37.53;16.90;;;;;;;0.89;100.00;99129.72;4993485;28;20049;-83
2021/11/29 00:47:49;;;;;;;31.43;14.80;;;;;;;0.81;100.00;99140.16;4985221;28;20593;-83
2021/11/29 00:50:16;;;;;;;30.57;14.87;;;;;;;0.77;100.00;99143.66;4992395;28;20041;-84
2021/11/29 00:52:44;;;;;;;26.93;13.87;;;;;;;0.79;100.00;99144.53;4981178;28;20057;-82
2021/11/29 00:55:12;;;;;;;29.73;16.07;;;;;;;0.79;100.00;99142.78;4995097;28;20056;-82
2021/11/29 00:57:40;;;;;;;37.13;18.57;;;;;;;0.80;100.00;99143.63;4978314;28;20049;-83
2021/11/29 01:00:10;;;;;;;33.27;15.23;;;;;;;0.80;100.00;99139.31;4977486;28;20041;-83
2021/11/29 01:02:37;;;;;;;32.53;15.50;;;;;;;0.82;100.00;99136.69;4981140;28;20045;-82
2021/11/29 01:05:06;;;;;;;33.93;15.83;;;;;;;0.84;100.00;99142.75;4996644;28;20037;-82
2021/11/29 01:07:32;;;;;;;33.33;15.90;;;;;;;0.84;100.00;99143.63;5000769;28;20044;-82
2021/11/29 01:09:59;;;;;;;36.50;15.50;;;;;;;0.87;100.00;99142.75;4994750;28;20056;-82
2021/11/29 01:12:26;;;;;;;35.67;16.67;;;;;;;0.88;100.00;99136.66;4997318;28;20061;-86
2021/11/29 01:14:53;;;;;;;32.63;15.60;;;;;;;0.90;100.00;99139.25;5000363;28;20095;-83
2021/11/29 01:17:20;;;;;;;32.83;16.20;;;;;;;0.91;100.00;99143.56;5002140;28;20046;-82
2021/11/29 01:19:47;;;;;;;35.07;16.90;;;;;;;0.89;100.00;99143.59;4998929;28;20050;-85
2021/11/29 01:22:14;;;;;;;34.83;16.67;;;;;;;0.89;100.00;99150.53;4980824;28;20661;-82
2021/11/29 01:24:40;;;;;;;30.40;15.77;;;;;;;0.91;100.00;99148.78;4971711;28;20056;-84
2021/11/29 01:27:08;;;;;;;33.73;15.23;;;;;;;0.91;100.00;99159.16;4999019;28;20033;-83
2021/11/29 01:29:35;;;;;;;36.37;17.30;;;;;;;0.93;100.00;99153.13;4998011;28;20442;-82
2021/11/29 01:32:03;;;;;;;30.33;14.53;;;;;;;0.96;100.00;99157.41;4973216;28;20037;-82
2021/11/29 01:34:30;;;;;;;43.50;18.17;;;;;;;0.99;100.00;99147.00;5012442;28;20042;-83
2021/11/29 01:36:57;;;;;;;33.67;16.37;;;;;;;0.95;100.00;99156.56;5001385;28;20096;-83
2021/11/29 01:39:24;;;;;;;34.70;17.83;;;;;;;0.99;100.00;99163.44;4981983;28;20502;-82
2021/11/29 01:41:51;;;;;;;39.17;17.23;;;;;;;0.99;100.00;99160.84;5016899;28;20045;-82
2021/11/29 01:44:18;;;;;;;36.47;15.50;;;;;;;0.97;100.00;99162.59;4999140;28;20053;-82
2021/11/29 01:46:45;;;;;;;33.97;15.30;;;;;;;0.96;100.00;99166.09;5020668;28;20446;-82
2021/11/29 01:49:12;;;;;;;30.23;16.27;;;;;;;0.95;100.00;99161.75;4996809;28;20503;-82
2021/11/29 01:51:39;;;;;;;33.83;14.77;;;;;;;0.92;100.00;99159.16;4983289;28;20100;-81
2021/11/29 01:54:06;;;;;;;33.13;16.30;;;;;;;0.93;100.00;99166.13;5003056;28;20045;-81
2021/11/29 01:56:33;;;;;;;35.67;18.20;;;;;;;0.92;100.00;99163.50;5010517;28;20441;-84
2021/11/29 01:59:01;;;;;;;44.90;17.47;;;;;;;0.90;100.00;99165.25;4994088;28;20041;-84
2021/11/29 02:01:28;;;;;;;32.80;16.70;;;;;;;0.86;100.00;99171.34;5003212;28;20095;-84
2021/11/29 02:03:57;;;;;;;33.47;15.73;;;;;;;0.89;100.00;99166.13;4983145;28;20092;-82
2021/11/29 02:06:27;;;;;;;33.13;16.60;;;;;;;0.86;100.00;99171.34;4983519;28;20049;-82
2021/11/29 02:08:55;;;;;;;30.57;14.47;;;;;;;0.84;100.00;99160.94;4998237;28;20045;-83
2021/11/29 02:11:23;;;;;;;31.07;15.23;;;;;;;0.83;100.00;99175.66;4994049;28;20037;-83
2021/11/29 02:13:50;;;;;;;35.60;16.10;;;;;;;0.86;100.00;99161.81;4998495;28;20077;-82
2021/11/29 02:16:17;;;;;;;37.13;17.40;;;;;;;0.91;100.00;99162.63;4983337;28;20042;-82
2021/11/29 02:18:44;;;;;;;33.30;15.43;;;;;;;0.99;100.00;99165.19;4998542;28;20055;-84
2021/11/29 02:21:17;;;;;;;35.13;17.00;;;;;;;0.94;100.00;99170.44;4972614;28;20109;-82
2021/11/29 02:23:47;;;;;;;35.60;16.40;;;;;;;0.89;100.00;99161.78;4996414;28;20103;-82
2021/11/29 02:26:14;;;;;;;32.40;16.73;;;;;;;0.95;100.00;99166.97;4999658;28;20041;-86
2021/11/29 02:28:43;;;;;;;39.30;18.07;;;;;;;0.92;100.00;99159.16;4980025;28;20049;-82
2021/11/29 02:31:14;;;;;;;36.27;17.70;;;;;;;0.92;100.00;99160.91;5006053;28;20049;-82
2021/11/29 02:33:43;;;;;;;37.08;16.65;;;;;;;0.90;100.00;99162.66;4983345;28;20056;-82
2021/11/29 02:36:10;;;;;;;35.03;17.03;;;;;;;0.92;100.00;99166.97;4980253;28;20050;-82
2021/11/29 02:38:37;;;;;;;36.43;18.87;;;;;;;0.90;100.00;99167.84;4993783;28;20049;-82
2021/11/29 02:41:06;;;;;;;36.80;16.37;;;;;;;0.89;100.00;99166.13;4999173;28;20103;-83
2021/11/29 02:43:33;;;;;;;35.17;15.83;;;;;;;0.89;100.00;99172.19;4978249;28;20052;-81
2021/11/29 02:46:00;;;;;;;36.47;16.20;;;;;;;0.88;100.00;99180.88;4991404;28;20053;-82
2021/11/29 02:48:49;;;;;;;36.73;17.67;;;;;;;0.89;100.00;99177.38;4994481;28;20081;-83
2021/11/29 02:51:19;;;;;;;31.27;14.23;;;;;;;0.90;100.00;99173.03;5000085;28;20046;-83
2021/11/29 02:53:46;;;;;;;41.57;17.30;;;;;;;0.89;100.00;99185.19;5014670;28;20046;-82
2021/11/29 02:56:13;;;;;;;39.27;16.93;;;;;;;0.88;100.00;99178.25;5007939;28;20050;-85
2021/11/29 02:58:41;;;;;;;32.30;15.63;;;;;;;0.86;100.00;99177.41;5010377;28;20046;-82
2021/11/29 03:01:08;;;;;;;36.00;17.30;;;;;;;0.89;100.00;99180.00;4983328;28;20392;-84
2021/11/29 03:03:50;;;;;;;35.80;16.37;;;;;;;0.88;100.00;99183.47;5009821;28;20060;-82
2021/11/29 03:06:18;;;;;;;33.83;15.47;;;;;;;0.88;100.00;99182.59;5015526;28;20049;-82
2021/11/29 03:08:45;;;;;;;37.60;15.63;;;;;;;0.90;100.00;99184.31;4997042;28;20057;-83
2021/11/29 03:11:13;;;;;;;36.60;19.23;;;;;;;0.89;100.00;99177.38;4983117;28;20132;-82
2021/11/29 03:13:41;;;;;;;33.17;15.27;;;;;;;0.87;100.00;99181.75;4997858;28;20057;-81
2021/11/29 03:16:07;;;;;;;31.53;15.83;;;;;;;0.88;100.00;99182.59;4997550;28;20124;-81
2021/11/29 03:18:38;;;;;;;38.03;16.03;;;;;;;0.87;100.00;99186.06;4978646;28;20069;-82
2021/11/29 03:21:05;;;;;;;35.20;15.67;;;;;;;0.88;100.00;99182.59;5004870;28;20054;-82
2021/11/29 03:23:32;;;;;;;36.10;15.10;;;;;;;0.84;100.00;99182.63;4980518;28;20072;-86
2021/11/29 03:25:59;;;;;;;31.77;15.73;;;;;;;0.82;100.00;99181.75;4973651;28;20048;-82
2021/11/29 03:28:26;;;;;;;34.10;15.40;;;;;;;0.79;100.00;99184.38;5003732;28;20045;-83
2021/11/29 03:30:54;;;;;;;30.50;15.53;;;;;;;0.77;100.00;99190.47;5007350;28;20096;-82
2021/11/29 03:33:20;;;;;;;32.20;14.57;;;;;;;0.78;100.00;99184.38;4996850;28;20042;-84
2021/11/29 03:35:47;;;;;;;29.30;12.53;;;;;;;0.73;100.00;99184.41;4971621;28;20045;-83
2021/11/29 03:38:14;;;;;;;30.50;13.17;;;;;;;0.73;100.00;99184.41;5002884;28;20138;-85
2021/11/29 03:40:41;;;;;;;24.47;13.13;;;;;;;0.72;100.00;99180.06;5015245;28;20499;-85
2021/11/29 03:43:07;;;;;;;29.40;14.33;;;;;;;0.70;100.00;99180.97;4996519;28;20080;-86
2021/11/29 03:45:34;;;;;;;30.67;13.07;;;;;;;0.69;100.00;99181.84;4986883;28;20057;-83
2021/11/29 03:48:01;;;;;;;28.73;13.07;;;;;;;0.69;100.00;99176.63;4981998;28;20376;-82
2021/11/29 03:50:27;;;;;;;30.43;13.43;;;;;;;0.66;100.00;99179.22;4992185;28;20096;-82
2021/11/29 03:52:54;;;;;;;26.90;13.73;;;;;;;0.62;100.00;99178.38;5002272;28;20523;-82
2021/11/29 03:55:23;;;;;;;25.40;12.10;;;;;;;0.64;100.00;99183.56;5011748;28;20490;-82
2021/11/29 03:57:50;;;;;;;26.47;12.53;;;;;;;0.62;100.00;99191.38;4978036;28;20101;-82
2021/11/29 04:00:17;;;;;;;24.77;13.67;;;;;;;0.61;100.00;99186.19;4994984;28;20433;-82
2021/11/29 04:02:44;;;;;;;26.77;14.30;;;;;;;0.59;100.00;99181.00;4993765;28;20052;-82
2021/11/29 04:05:11;;;;;;;26.20;13.23;;;;;;;0.55;100.00;99180.13;4978893;28;20045;-82
2021/11/29 04:07:38;;;;;;;26.80;13.20;;;;;;;0.66;100.00;99179.22;4996683;28;20060;-82
2021/11/29 04:10:06;;;;;;;24.30;13.10;;;;;;;0.58;100.00;99181.84;4993081;28;20045;-82
2021/11/29 04:12:32;;;;;;;26.03;12.60;;;;;;;0.51;100.00;99180.19;4992790;28;20038;-82
2021/11/29 04:14:59;;;;;;;23.70;11.50;;;;;;;0.53;100.00;99188.81;4983836;28;20045;-81
2021/11/29 04:17:27;;;;;;;24.53;12.40;;;;;;;0.47;100.00;99194.03;4994495;28;20045;-82
2021/11/29 04:19:53;;;;;;;20.77;11.43;;;;;;;0.44;100.00;99189.72;5009495;28;20050;-82
2021/11/29 04:22:20;;;;;;;24.17;12.80;;;;;;;0.47;100.00;99194.03;5008619;28;20407;-82
2021/11/29 04:24:47;;;;;;;24.23;11.87;;;;;;;0.48;100.00;99190.56;4983088;28;20056;-82
2021/11/29 04:27:14;;;;;;;24.70;11.77;;;;;;;0.47;100.00;99196.63;5011185;28;20037;-82
2021/11/29 04:29:43;;;;;;;21.80;11.03;;;;;;;0.44;100.00;99197.50;5011660;28;20049;-81
2021/11/29 04:32:09;;;;;;;24.30;12.27;;;;;;;0.52;100.00;99198.34;4991343;28;20038;-82
2021/11/29 04:34:36;;;;;;;23.60;12.23;;;;;;;0.47;100.00;99194.91;4995988;28;20487;-82
2021/11/29 04:37:03;;;;;;;23.87;12.87;;;;;;;0.43;100.00;99195.78;4995672;28;20037;-83
2021/11/29 04:39:32;;;;;;;23.80;11.93;;;;;;;0.42;100.00;99191.47;5005988;28;20037;-82
2021/11/29 04:41:59;;;;;;;23.53;11.47;;;;;;;0.44;100.00;99188.84;5001973;28;20042;-83
2021/11/29 04:44:26;;;;;;;25.07;12.93;;;;;;;0.42;100.00;99182.78;4992364;28;20049;-83
2021/11/29 04:46:53;;;;;;;22.90;12.07;;;;;;;0.43;100.00;99184.53;5016236;28;20047;-82
2021/11/29 04:49:20;;;;;;;23.53;12.67;;;;;;;0.43;100.00;99185.41;4982960;28;20281;-83
2021/11/29 04:51:47;;;;;;;24.13;11.53;;;;;;;0.44;100.00;99186.25;4990244;28;20050;-83
2021/11/29 04:54:14;;;;;;;22.20;12.70;;;;;;;0.41;100.00;99197.50;4983945;28;20052;-83
2021/11/29 04:56:41;;;;;;;22.90;11.50;;;;;;;0.38;100.00;99194.06;4984664;28;20045;-84
2021/11/29 04:59:08;;;;;;;24.37;12.00;;;;;;;0.39;100.00;99188.00;5017327;28;20046;-84
2021/11/29 05:01:34;;;;;;;20.73;11.00;;;;;;;0.52;100.00;99190.56;5001240;28;20529;-83
2021/11/29 05:04:01;;;;;;;21.10;10.73;;;;;;;0.42;100.00;99198.38;5002635;28;20047;-84
2021/11/29 05:06:28;;;;;;;19.73;10.73;;;;;;;0.42;100.00;99199.25;5005770;28;20490;-84
2021/11/29 05:08:55;;;;;;;20.03;10.60;;;;;;;0.40;100.00;99192.31;5053964;23;20499;-85
2021/11/29 05:11:21;;;;;;;19.57;10.90;;;;;;;0.49;100.00;99200.94;4968734;28;20035;-83
2021/11/29 05:13:48;;;;;;;18.07;9.50;;;;;;;0.41;100.00;99205.28;5007071;28;20050;-83
2021/11/29 05:16:15;;;;;;;19.47;10.40;;;;;;;0.39;100.00;99201.00;4981485;28;20495;-85
2021/11/29 05:18:43;;;;;;;17.97;9.40;;;;;;;0.36;100.00;99199.28;4947137;28;20050;-84
2021/11/29 05:21:09;;;;;;;20.67;10.43;;;;;;;0.42;100.00;99204.47;4962524;28;20046;-83
2021/11/29 05:23:36;;;;;;;20.80;10.43;;;;;;;0.42;100.00;99213.94;4964400;28;21466;-83
2021/11/29 05:26:03;;;;;;;17.37;10.30;;;;;;;0.39;100.00;99212.25;4965392;28;20038;-83
2021/11/29 05:28:30;;;;;;;17.50;9.80;;;;;;;0.36;100.00;99214.84;4982596;28;20556;-83
2021/11/29 05:30:57;;;;;;;20.87;10.67;;;;;;;0.37;100.00;99216.59;4969476;28;20047;-85
2021/11/29 05:33:24;;;;;;;18.87;8.93;;;;;;;0.40;100.00;99218.31;4963397;28;22771;-84
2021/11/29 05:35:51;;;;;;;17.50;9.20;;;;;;;0.42;100.00;99226.94;4981497;28;20057;-83
2021/11/29 05:38:17;;;;;;;17.00;8.70;;;;;;;0.41;100.00;99226.09;4974555;28;20304;-83
2021/11/29 05:40:44;;;;;;;15.37;9.80;;;;;;;0.41;100.00;99236.47;4979764;28;20057;-84
2021/11/29 05:43:11;;;;;;;15.17;9.03;;;;;;;0.39;100.00;99238.22;4990879;28;20112;-84
2021/11/29 05:45:39;;;;;;;14.73;8.20;;;;;;;0.43;100.00;99239.09;4979707;28;20628;-83
2021/11/29 05:48:07;;;;;;;16.93;8.57;;;;;;;0.46;100.00;99244.28;4980692;28;20045;-84
2021/11/29 05:50:34;;;;;;;13.60;7.80;;;;;;;0.40;100.00;99242.53;4978809;28;20061;-84
2021/11/29 05:53:01;;;;;;;14.13;7.70;;;;;;;0.38;100.00;99246.03;4976587;28;20049;-84
2021/11/29 05:55:27;;;;;;;14.70;9.10;;;;;;;0.41;100.00;99249.47;4978779;28;20038;-84
2021/11/29 05:57:54;;;;;;;16.33;9.33;;;;;;;0.42;100.00;99243.44;4989265;28;20179;-84
2021/11/29 06:00:21;;;;;;;17.27;8.73;;;;;;;0.43;100.00;99252.09;4995101;28;20049;-83
2021/11/29 06:02:48;;;;;;;16.27;9.20;;;;;;;0.42;100.00;99259.03;4976262;28;20047;-84
2021/11/29 06:05:15;;;;;;;17.50;8.83;;;;;;;0.44;100.00;99253.81;4959741;28;20495;-85
2021/11/29 06:07:42;;;;;;;18.87;9.87;;;;;;;0.43;100.00;99247.75;4968253;28;20045;-84
2021/11/29 06:10:11;;;;;;;20.13;10.77;;;;;;;0.45;100.00;99261.59;4972644;28;20152;-84
2021/11/29 06:12:38;;;;;;;17.53;10.23;;;;;;;0.39;100.00;99260.72;4973907;28;20050;-84
2021/11/29 06:15:05;;;;;;;20.53;10.70;;;;;;;0.38;100.00;99261.59;4979512;28;20428;-84
2021/11/29 06:17:31;;;;;;;20.93;11.13;;;;;;;0.39;100.00;99266.78;4979611;28;20042;-84
2021/11/29 06:19:58;;;;;;;21.00;11.10;;;;;;;0.40;100.00;99273.72;4972286;28;20043;-85
2021/11/29 06:22:25;;;;;;;22.83;11.93;;;;;;;0.41;100.00;99279.78;4987244;28;20046;-85
2021/11/29 06:24:51;;;;;;;24.70;13.77;;;;;;;0.41;100.00;99285.84;4976715;28;20049;-84
2021/11/29 06:27:18;;;;;;;22.63;12.80;;;;;;;0.44;100.00;99282.38;4960171;28;20043;-84
2021/11/29 06:29:45;;;;;;;26.40;12.27;;;;;;;0.43;100.00;99288.47;4973485;28;20046;-85
2021/11/29 06:32:12;;;;;;;29.70;13.77;;;;;;;0.46;100.00;99289.31;4973241;28;20042;-85
2021/11/29 06:34:39;;;;;;;24.10;12.37;;;;;;;0.50;100.00;99296.22;4994866;28;20656;-84
2021/11/29 06:37:07;;;;;;;24.93;11.43;;;;;;;0.48;100.00;99295.34;4985491;28;20491;-85
2021/11/29 06:39:35;;;;;;;22.53;12.70;;;;;;;0.44;100.00;99298.84;4966433;28;20045;-84
2021/11/29 06:42:04;;;;;;;25.60;12.43;;;;;;;0.43;100.00;99302.31;4988366;28;20054;-84
2021/11/29 06:44:31;;;;;;;20.83;10.77;;;;;;;0.44;100.00;99310.97;4958962;28;20058;-84
2021/11/29 06:46:58;;;;;;;21.20;11.37;;;;;;;0.44;100.00;99304.03;4990710;28;20053;-84
2021/11/29 06:49:25;;;;;;;22.83;12.27;;;;;;;0.47;100.00;99314.41;4948591;28;20041;-84
2021/11/29 06:51:52;;;;;;;25.03;12.27;;;;;;;0.48;100.00;99307.47;4977285;28;20100;-84
2021/11/29 06:54:21;;;;;;;30.67;13.83;;;;;;;0.52;100.00;99314.44;4961715;28;20039;-84
2021/11/29 06:56:48;;;;;;;27.03;13.77;;;;;;;0.47;100.00;99314.41;4978930;28;20050;-84
2021/11/29 06:59:15;;;;;;;24.93;12.93;;;;;;;0.63;100.00;99311.78;4961661;28;20038;-83
2021/11/29 07:01:41;;;;;;;23.57;13.80;;;;;;;0.54;100.00;99316.13;5008555;28;20286;-83
2021/11/29 07:04:09;;;;;;;26.13;13.53;;;;;;;0.56;100.00;99311.81;4977919;28;20056;-83
2021/11/29 07:06:35;;;;;;;26.37;12.83;;;;;;;0.50;100.00;99316.13;4978598;28;20414;-84
2021/11/29 07:09:03;;;;;;;25.27;12.50;;;;;;;0.48;100.00;99317.88;4976300;28;20038;-84
2021/11/29 07:11:29;;;;;;;27.87;13.90;;;;;;;0.46;100.00;99323.09;4963389;28;20057;-83
2021/11/29 07:13:56;;;;;;;26.17;12.37;;;;;;;0.55;100.00;99323.06;4993912;28;20136;-84
2021/11/29 07:16:23;;;;;;;25.37;13.83;;;;;;;0.57;100.00;99325.66;4964164;28;20048;-84
2021/11/29 07:18:49;;;;;;;22.90;11.67;;;;;;;0.41;100.00;99331.72;4975962;28;20463;-84
2021/11/29 07:21:16;;;;;;;22.73;12.80;;;;;;;0.35;100.00;99324.84;4974957;28;20393;-84
2021/11/29 07:23:43;;;;;;;27.57;13.30;;;;;;;0.28;100.00;99339.56;4962566;28;20068;-85
2021/11/29 07:26:09;;;;;;;25.43;11.37;;;;;;;0.21;100.00;99337.81;4998431;28;20486;-84
2021/11/29 07:28:37;;;;;;;23.57;10.10;;;;;;;0.21;100.00;99340.41;4957946;28;20069;-84
2021/11/29 07:31:04;;;;;;;24.60;12.03;;;;;;;0.21;100.00;99344.75;4974934;28;20046;-83
2021/11/29 07:33:31;;;;;;;27.67;12.33;;;;;;;0.16;100.00;99339.53;4957594;28;20112;-84
2021/11/29 07:35:58;;;;;;;23.70;12.40;;;;;;;0.15;100.00;99349.94;4974929;28;20053;-85
2021/11/29 07:38:25;;;;;;;24.77;14.17;;;;;;;0.21;100.00;99348.22;4968440;28;20049;-85
2021/11/29 07:40:52;;;;;;;30.37;13.60;;;;;;;0.23;100.00;99354.25;4993079;28;20053;-84
2021/11/29 07:43:18;;;;;;;24.90;12.03;;;;;;;0.23;100.00;99353.41;4995963;28;20053;-84
2021/11/29 07:45:45;;;;;;;26.07;13.53;;;;;;;0.27;100.00;99362.94;4997577;28;20052;-85
2021/11/29 07:48:12;;;;;;;33.77;15.57;;;;;;;0.34;100.00;99358.59;4979612;28;20484;-84
2021/11/29 07:50:39;;;;;;;28.77;15.63;;;;;;;0.31;100.00;99366.38;4961034;28;20046;-84
2021/11/29 07:53:06;;;;;;;26.97;14.73;;;;;;;0.30;100.00;99362.94;4977418;28;20049;-85
2021/11/29 07:55:33;;;;;;;33.37;14.47;;;;;;;0.32;100.00;99358.59;4974377;28;20046;-85
2021/11/29 07:58:01;;;;;;;29.13;14.13;;;;;;;0.36;100.00;99369.88;4960913;28;20039;-86
2021/11/29 08:00:29;;;;;;;31.53;16.30;;;;;;;0.41;100.00;99365.50;5008032;28;20046;-85
2021/11/29 08:02:58;;;;;;;29.63;14.93;;;;;;;0.44;100.00;99363.78;4976370;28;20045;-84
2021/11/29 08:05:26;;;;;;;31.27;14.93;;;;;;;0.50;100.00;99373.31;5007016;28;20042;-84
2021/11/29 08:07:53;;;;;;;28.07;15.50;;;;;;;0.51;100.00;99373.31;4988427;28;20044;-83
2021/11/29 08:10:21;;;;;;;28.80;14.77;;;;;;;0.62;100.00;99372.44;4975509;28;20077;-84
2021/11/29 08:12:48;;;;;;;27.07;14.20;;;;;;;0.52;100.00;99377.66;4976467;28;20049;-84
2021/11/29 08:15:16;;;;;;;27.90;14.57;;;;;;;0.51;100.00;99375.94;4991615;28;20046;-83
2021/11/29 08:17:43;;;;;;;32.70;15.60;;;;;;;0.52;100.00;99366.41;4997929;28;20111;-84
2021/11/29 08:20:11;;;;;;;29.80;14.13;;;;;;;0.56;100.00;99373.31;4982234;28;20042;-84
2021/11/29 08:22:38;;;;;;;30.37;14.33;;;;;;;0.62;100.00;99375.91;4974816;28;20074;-84
2021/11/29 08:25:06;;;;;;;27.63;13.17;;;;;;;0.76;100.00;99389.75;4980279;28;20052;-85
2021/11/29 08:27:33;;;;;;;27.60;13.27;;;;;;;0.76;100.00;99384.56;4985268;28;20049;-85
2021/11/29 08:30:02;;;;;;;29.13;13.97;;;;;;;0.77;100.00;99391.50;4985142;28;20133;-84
2021/11/29 08:32:29;;;;;;;27.53;13.60;;;;;;;0.75;100.00;99387.13;4982276;28;20048;-85
2021/11/29 08:34:55;;;;;;;31.47;13.13;;;;;;;0.80;100.00;99395.81;4986087;28;20046;-84
2021/11/29 08:37:22;;;;;;;25.03;12.57;;;;;;;0.75;100.00;99392.34;4974005;28;20037;-84
2021/11/29 08:39:49;;;;;;;28.43;12.87;;;;;;;0.74;100.00;99394.06;4998852;28;20042;-85
2021/11/29 08:42:16;;;;;;;26.57;12.67;;;;;;;0.81;100.00;99406.19;4968881;28;20129;-85
2021/11/29 08:44:42;;;;;;;26.47;12.23;;;;;;;0.73;100.00;99400.16;4984208;28;20054;-85
2021/11/29 08:47:09;;;;;;;28.57;14.33;;;;;;;0.89;100.00;99405.31;4953072;28;20046;-86
2021/11/29 08:49:36;;;;;;;24.57;13.17;;;;;;;0.90;100.00;99412.25;4985764;28;20040;-85
2021/11/29 08:52:03;;;;;;;24.50;12.57;;;;;;;0.87;100.00;99409.66;4996903;28;20109;-86
2021/11/29 08:54:30;;;;;;;25.43;11.93;;;;;;;0.95;100.00;99411.38;4993490;28;20398;-86
2021/11/29 08:56:56;;;;;;;24.43;11.50;;;;;;;0.94;100.00;99414.88;5009858;28;20042;-86
2021/11/29 08:59:26;;;;;;;25.50;11.77;;;;;;;0.89;100.00;99414.00;4991587;28;20105;-86
2021/11/29 09:01:53;;;;;;;24.37;11.03;;;;;;;0.97;100.00;99414.84;4989310;28;20051;-86
2021/11/29 09:04:20;;;;;;;23.53;11.93;;;;;;;0.95;100.00;99418.31;4968360;28;20129;-87
2021/11/29 09:06:47;;;;;;;28.30;12.53;;;;;;;0.90;100.00;99413.13;4986273;28;20068;-87
2021/11/29 09:09:14;;;;;;;27.30;12.00;;;;;;;1.07;100.00;99424.34;4979719;28;20049;-88
2021/11/29 09:11:42;;;;;;;23.70;11.13;;;;;;;0.95;100.00;99427.00;4998869;28;20061;-87
2021/11/29 09:14:10;;;;;;;22.17;11.70;;;;;;;1.08;100.00;99427.81;4989334;28;20046;-86
2021/11/29 09:16:36;;;;;;;23.93;12.00;;;;;;;0.98;100.00;99420.91;4961940;28;20045;-87
2021/11/29 09:19:04;;;;;;;21.57;9.90;;;;;;;1.04;100.00;99431.31;4976189;28;20034;-86
2021/11/29 09:21:31;;;;;;;25.47;11.33;;;;;;;1.03;100.00;99430.44;4977560;28;20084;-86
2021/11/29 09:23:59;;;;;;;23.30;11.70;;;;;;;0.98;100.00;99436.50;4961020;28;20137;-86
2021/11/29 09:26:26;;;;;;;22.07;11.17;;;;;;;0.98;100.00;99434.78;4996480;28;20050;-89
2021/11/29 09:28:53;;;;;;;23.90;11.47;;;;;;;1.00;100.00;99432.16;4992087;28;20046;-87
2021/11/29 09:31:20;;;;;;;24.73;11.00;;;;;;;1.00;100.00;99438.22;4960981;28;20046;-87
2021/11/29 09:33:46;;;;;;;24.67;11.97;;;;;;;1.00;100.00;99432.16;4995426;28;20046;-87
2021/11/29 09:36:13;;;;;;;20.67;10.10;;;;;;;1.02;100.00;99436.53;5007640;28;20049;-86
2021/11/29 09:38:40;;;;;;;25.57;11.50;;;;;;;0.98;100.00;99434.78;4998659;28;21058;-86
2021/11/29 09:41:07;;;;;;;21.37;10.77;;;;;;;0.96;100.00;99433.06;4998866;28;20053;-87
2021/11/29 09:43:35;;;;;;;23.93;11.37;;;;;;;1.01;100.00;99426.09;4977061;28;20049;-86
2021/11/29 09:46:05;;;;;;;22.47;10.63;;;;;;;1.00;100.00;99433.03;4993859;28;20050;-86
2021/11/29 09:48:33;;;;;;;30.03;12.60;;;;;;;1.06;100.00;99425.22;4960292;28;20053;-86
2021/11/29 09:51:19;;;;;;;22.47;11.30;;;;;;;1.07;100.00;99434.75;4964170;28;20050;-86
2021/11/29 09:53:53;;;;;;;26.17;11.70;;;;;;;1.11;100.00;99433.03;4975690;28;20050;-85
2021/11/29 09:56:20;;;;;;;27.45;12.40;;;;;;;1.16;100.00;99427.81;4977439;28;20042;-86
2021/11/29 09:58:48;;;;;;;25.23;13.30;;;;;;;1.22;100.00;99423.47;4959375;28;20072;-87
2021/11/29 10:01:17;;;;;;;24.83;13.10;;;;;;;1.26;100.00;99426.91;4981252;28;20041;-88
2021/11/29 10:03:59;;;;;;;24.50;11.83;;;;;;;1.25;100.00;99431.25;5011247;28;20052;-86
2021/11/29 10:06:25;;;;;;;30.73;12.33;;;;;;;1.29;100.00;99424.31;5015639;28;20048;-87
2021/11/29 10:08:53;;;;;;;23.80;12.40;;;;;;;1.37;100.00;99432.97;4962917;28;20721;-86
2021/11/29 10:11:25;;;;;;;26.17;14.43;;;;;;;1.45;100.00;99427.75;4961798;28;20499;-86
2021/11/29 10:14:03;;;;;;;26.30;12.63;;;;;;;1.48;100.00;99438.13;4994584;28;20042;-87
2021/11/29 10:16:43;;;;;;;28.30;13.07;;;;;;;1.56;100.00;99437.22;4980550;28;20129;-87
2021/11/29 10:19:19;;;;;;;24.27;11.10;;;;;;;1.81;100.00;99439.72;4986276;28;20034;-89
2021/11/29 10:21:45;;;;;;;21.43;10.37;;;;;;;1.72;100.00;99435.44;4991037;28;20068;-85
2021/11/29 10:24:16;;;;;;;24.13;11.63;;;;;;;1.66;100.00;99433.72;4981667;28;20045;-87
2021/11/29 10:26:51;;;;;;;25.97;12.53;;;;;;;1.69;100.00;99441.53;4970883;28;20050;-85
2021/11/29 10:29:18;;;;;;;19.77;9.97;;;;;;;1.77;100.00;99440.63;4998387;28;20038;-85
2021/11/29 10:31:47;;;;;;;23.10;10.30;;;;;;;1.82;100.00;99442.31;4976050;28;20411;-85
2021/11/29 10:34:19;;;;;;;18.43;9.63;;;;;;;1.90;100.00;99442.28;4945190;28;20125;-85
2021/11/29 10:36:49;;;;;;;18.67;9.43;;;;;;;1.89;100.00;99435.34;4984990;28;20048;-87
2021/11/29 10:39:24;;;;;;;17.87;9.40;;;;;;;1.89;100.00;99449.22;4976793;28;20072;-86
2021/11/29 10:41:56;;;;;;;18.53;9.73;;;;;;;1.97;100.00;99454.41;4971552;28;20053;-85
2021/11/29 10:44:35;;;;;;;20.57;10.07;;;;;;;2.13;100.00;99450.84;4981595;28;20042;-85
2021/11/29 10:47:05;;;;;;;18.37;9.13;;;;;;;2.16;100.00;99444.75;4962108;28;20056;-84
2021/11/29 10:49:38;;;;;;;18.17;9.30;;;;;;;2.18;100.00;99454.28;4977078;28;20470;-85
2021/11/29 10:52:05;;;;;;;20.70;9.83;;;;;;;2.19;100.00;99456.03;4979292;28;20042;-87
2021/11/29 10:54:34;;;;;;;17.53;9.33;;;;;;;2.29;100.00;99456.84;4977894;28;20689;-85
2021/11/29 10:57:03;;;;;;;16.87;9.67;;;;;;;2.36;100.00;99445.50;4976141;28;20081;-85
2021/11/29 10:59:35;;;;;;;17.07;9.57;;;;;;;2.42;100.00;99453.25;4960571;28;20069;-87
2021/11/29 11:02:08;;;;;;;16.93;8.77;;;;;;;2.49;100.00;99446.25;4976241;28;20466;-85
2021/11/29 11:04:39;;;;;;;16.73;8.33;;;;;;;2.54;100.00;99452.31;4978948;28;20074;-87
2021/11/29 11:07:11;;;;;;;16.03;8.87;;;;;;;2.76;100.00;99458.22;4979051;28;20046;-86
2021/11/29 11:09:40;;;;;;;16.07;8.97;;;;;;;2.82;100.00;99456.44;4981737;28;20165;-86
2021/11/29 11:12:10;;;;;;;15.23;9.00;;;;;;;3.16;100.00;99460.47;5059956;23;20405;-84
2021/11/29 11:14:39;;;;;;;14.07;7.93;;;;;;;3.16;100.00;99453.50;4997766;28;20041;-84
2021/11/29 11:17:30;;;;;;;16.03;7.73;;;;;;;3.18;100.00;99454.34;5031221;28;20516;-88
2021/11/29 11:20:05;;;;;;;13.47;6.77;;;;;;;3.21;100.00;99454.34;4998206;28;20053;-86
2021/11/29 11:22:36;;;;;;;;;;;;;;;3.16;100.00;99448.28;5015097;28;20052;-86